Aérodrome :
LOGIN :

S'inscrire | Disclaimer

   EN    FR    IT 

 










Légende :    VFR   VFR Marginal   IFR   IFR Intensif   IFR Très Intensif
Visi : 
Plafond : 
>= 8 km
>= 3000ft
5 à 8 km
1000 à 3000 ft
1500m à 5 km
500 à 1000 ft
800 à 1500m
200 à 500 ft
< 800m
< 200 ft
Symboles :   Orages  Brouillard  Fortes neiges  Fortes précipitations  Vent > 20 kt
SIGMETs :   Divers  Orages  Givrage  Turbulence  Onde Orograph.  Cendres Volcan.







- Altitude de l'aérodrome : 1900 ft
- Code IATA : FEZ


GMFF - Fez Saiss

DERNIER METAR :
  • 221300Z 28010KT 220V320 CAVOK 29/08 Q1016 NOSIG

METARs EXPIRÉS :
  • 221230Z 31009KT 260V360 CAVOK 29/09 Q1016 NOSIG
  • 221200Z VRB08KT CAVOK 28/09 Q1016 NOSIG
  • 221130Z 05007KT 010V130 CAVOK 28/09 Q1016 NOSIG
  • 221100Z 02008KT 290V070 CAVOK 27/09 Q1016 NOSIG
  • 221030Z 04007KT 330V110 CAVOK 26/09 Q1016 NOSIG

TAF TAF GMFF
Valide du 22 à 12h jusqu'au 23 à 18h UTC


221100Z 2212/2318 06008KT CAVOK
BECMG 2212/2214 FEW030
BECMG 2218/2220 18008KT CAVOK
Pas de NOTAMs connus pour ce terrain.
1 SIGMET publié pour la FIR Casablanca (GMMM) :
 
Orages noyés dans la masse
GMMM SIGMET 01 VALID 221305/221500 GMMC
GMMM CASABLANCA FIR EMBD TS OBS WI N3207 W00416 - N3105 W00545 - N31 57 W00624 - N3257 W00502 - N3207 W00416 TOP FL340 MOV NE INTSF=



MET'MAP, la Météo Aéronautique d'un coup d'oeil ! - Copyright ORBIFLY Décembre 2007 - Disclaimer

ORBIFLY MET'MAP TEAM :

Programmation & Développement : Alexandra Zaïnal
Conception & Développement : Baudouin d'Aumeries
Co-Programmation & Développement : Marc-Olivier Méhu
Soutien technique & logistique : Manuel Goepfert

Contact : metmap@orbifly.com




SOURCES & CREDITS :

   NOAA